createdAt,value
2022-10-12T00:00:39.380Z,17.70
2022-10-12T00:03:07.277Z,17.50
2022-10-12T00:05:35.074Z,17.33
2022-10-12T00:08:02.894Z,16.27
2022-10-12T00:10:32.092Z,16.20
2022-10-12T00:13:00.355Z,17.10
2022-10-12T00:15:28.346Z,16.13
2022-10-12T00:17:56.351Z,17.47
2022-10-12T00:20:24.139Z,17.33
2022-10-12T00:22:51.966Z,16.10
2022-10-12T00:25:19.719Z,17.60
2022-10-12T00:27:48.947Z,16.13
2022-10-12T00:30:16.874Z,16.83
2022-10-12T00:32:44.686Z,17.60
2022-10-12T00:35:12.596Z,16.50
2022-10-12T00:37:40.574Z,16.70
2022-10-12T00:40:09.626Z,16.77
2022-10-12T00:42:37.645Z,17.47
2022-10-12T00:45:08.073Z,16.30
2022-10-12T00:47:38.086Z,17.77
2022-10-12T00:50:10.885Z,17.63
2022-10-12T00:52:43.391Z,16.50
2022-10-12T00:55:14.778Z,17.27
2022-10-12T00:57:46.903Z,15.70
2022-10-12T01:00:18.449Z,16.00
2022-10-12T01:02:48.242Z,16.50
2022-10-12T01:05:16.639Z,16.33
2022-10-12T01:07:44.490Z,15.60
2022-10-12T01:10:13.075Z,17.40
2022-10-12T01:12:43.365Z,17.07
2022-10-12T01:15:12.947Z,16.67
2022-10-12T01:17:51.349Z,17.37
2022-10-12T01:20:52.449Z,16.73
2022-10-12T01:24:08.651Z,17.60
2022-10-12T01:27:15.928Z,17.67
2022-10-12T01:30:14.695Z,15.53
2022-10-12T01:33:10.759Z,17.80
2022-10-12T01:35:50.484Z,17.60
2022-10-12T01:38:37.535Z,16.27
2022-10-12T01:41:11.632Z,16.90
2022-10-12T01:43:42.199Z,17.60
2022-10-12T01:46:46.345Z,19.00
2022-10-12T01:49:18.155Z,18.00
2022-10-12T01:52:16.611Z,18.90
2022-10-12T01:54:57.584Z,18.90
2022-10-12T01:57:32.515Z,18.40
2022-10-12T02:00:06.557Z,18.30
2022-10-12T02:02:45.429Z,18.47
2022-10-12T02:05:21.680Z,18.03
2022-10-12T02:07:52.758Z,16.50
2022-10-12T02:10:28.215Z,16.73
2022-10-12T02:12:58.848Z,16.20
2022-10-12T02:15:28.373Z,16.07
2022-10-12T02:17:58.973Z,16.70
2022-10-12T02:20:28.590Z,15.17
2022-10-12T02:23:18.074Z,14.53
2022-10-12T02:25:47.264Z,15.60
2022-10-12T02:28:19.468Z,16.30
2022-10-12T02:30:53.532Z,15.50
2022-10-12T02:33:28.216Z,16.03
2022-10-12T02:36:01.701Z,16.50
2022-10-12T02:38:33.987Z,15.67
2022-10-12T02:41:06.221Z,15.50
2022-10-12T02:43:38.910Z,16.00
2022-10-12T02:46:10.398Z,15.57
2022-10-12T02:48:41.409Z,14.93
2022-10-12T02:51:11.983Z,15.80
2022-10-12T02:53:40.268Z,16.27
2022-10-12T02:56:11.672Z,16.13
2022-10-12T02:58:40.085Z,16.50
2022-10-12T03:01:08.070Z,14.30
2022-10-12T03:03:36.080Z,15.90
2022-10-12T03:06:05.734Z,15.07
2022-10-12T03:08:33.688Z,15.10
2022-10-12T03:11:03.374Z,15.57
2022-10-12T03:13:31.651Z,16.37
2022-10-12T03:16:03.156Z,16.30
2022-10-12T03:18:31.372Z,16.00
2022-10-12T03:20:59.487Z,15.70
2022-10-12T03:23:28.813Z,16.30
2022-10-12T03:25:56.601Z,15.93
2022-10-12T03:28:24.457Z,15.20
2022-10-12T03:30:52.351Z,15.67
2022-10-12T03:33:20.446Z,15.97
2022-10-12T03:35:48.771Z,15.87
2022-10-12T03:38:17.625Z,16.07
2022-10-12T03:40:47.647Z,15.70
2022-10-12T03:43:15.502Z,16.00
2022-10-12T03:45:43.358Z,15.23
2022-10-12T03:48:11.343Z,16.70
2022-10-12T03:50:40.073Z,15.70
2022-10-12T03:53:08.166Z,15.70
2022-10-12T03:55:36.022Z,16.10
2022-10-12T03:58:05.188Z,14.93
2022-10-12T04:00:32.975Z,16.03
2022-10-12T04:03:02.106Z,15.07
2022-10-12T04:05:30.246Z,15.57
2022-10-12T04:07:58.165Z,15.53
2022-10-12T04:10:26.354Z,16.30
2022-10-12T04:12:54.160Z,15.97
2022-10-12T04:17:56.007Z,15.40
2022-10-12T04:20:23.801Z,15.90
2022-10-12T04:22:51.673Z,17.00
2022-10-12T04:25:19.474Z,15.07
2022-10-12T04:27:47.356Z,15.47
2022-10-12T04:30:15.167Z,15.93
2022-10-12T04:32:44.371Z,15.50
2022-10-12T04:35:12.657Z,14.63
2022-10-12T04:37:40.803Z,15.17
2022-10-12T04:40:09.819Z,14.10
2022-10-12T04:42:37.637Z,14.90
2022-10-12T04:45:06.216Z,14.83
2022-10-12T04:47:34.999Z,16.20
2022-10-12T04:50:05.080Z,16.33
2022-10-12T04:52:32.888Z,16.30
2022-10-12T04:55:00.722Z,16.37
2022-10-12T04:57:28.680Z,15.60
2022-10-12T04:59:56.512Z,14.67
2022-10-12T05:02:24.339Z,15.17
2022-10-12T05:04:52.425Z,16.57
2022-10-12T05:07:21.704Z,16.03
2022-10-12T05:09:49.458Z,16.83
2022-10-12T05:12:17.953Z,15.47
2022-10-12T05:14:45.772Z,15.70
2022-10-12T05:17:13.573Z,14.40
2022-10-12T05:19:41.367Z,16.33
2022-10-12T05:22:09.295Z,16.93
2022-10-12T05:24:38.430Z,18.53
2022-10-12T05:27:06.293Z,19.23
2022-10-12T05:29:34.114Z,16.43
2022-10-12T05:32:01.948Z,14.67
2022-10-12T05:34:29.735Z,15.43
2022-10-12T05:36:58.226Z,14.33
2022-10-12T05:39:26.013Z,14.00
2022-10-12T05:41:55.880Z,15.43
2022-10-12T05:44:23.663Z,14.53
2022-10-12T05:46:51.421Z,15.80
2022-10-12T05:49:19.212Z,15.07
2022-10-12T05:51:47.002Z,14.83
2022-10-12T05:54:14.779Z,13.50
2022-10-12T05:56:42.677Z,14.50
2022-10-12T05:59:13.274Z,14.93
2022-10-12T06:01:41.335Z,14.77
2022-10-12T06:04:09.176Z,15.80
2022-10-12T06:06:37.020Z,15.70
2022-10-12T06:09:04.935Z,15.87
2022-10-12T06:11:35.586Z,15.63
2022-10-12T06:14:04.799Z,16.00
2022-10-12T06:16:33.942Z,13.80
2022-10-12T06:19:01.809Z,14.87
2022-10-12T06:21:33.611Z,14.97
2022-10-12T06:24:01.956Z,14.87
2022-10-12T06:26:29.869Z,15.03
2022-10-12T06:28:57.819Z,15.97
2022-10-12T06:31:25.611Z,15.30
2022-10-12T06:33:54.779Z,14.77
2022-10-12T06:36:23.600Z,14.93
2022-10-12T06:38:51.516Z,14.43
2022-10-12T06:41:19.369Z,14.03
2022-10-12T06:43:47.169Z,15.80
2022-10-12T06:46:15.350Z,14.37
2022-10-12T06:48:43.140Z,14.07
2022-10-12T06:51:12.256Z,14.03
2022-10-12T06:53:40.438Z,14.70
2022-10-12T06:56:08.764Z,14.23
2022-10-12T06:58:36.713Z,13.53
2022-10-12T07:01:05.038Z,13.10
2022-10-12T07:03:32.913Z,15.63
2022-10-12T07:06:07.377Z,15.13
2022-10-12T07:08:36.578Z,13.83
2022-10-12T07:11:07.097Z,15.83
2022-10-12T07:13:35.264Z,15.37
2022-10-12T07:16:03.169Z,14.80
2022-10-12T07:18:31.422Z,14.73
2022-10-12T07:20:59.820Z,15.40
2022-10-12T07:23:27.640Z,14.80
2022-10-12T07:25:56.891Z,15.00
2022-10-12T07:28:25.073Z,15.37
2022-10-12T07:30:52.911Z,14.97
2022-10-12T07:33:20.736Z,15.60
2022-10-12T07:36:13.233Z,15.83
2022-10-12T07:38:44.998Z,15.60
2022-10-12T07:41:14.583Z,15.50
2022-10-12T07:43:43.356Z,16.20
2022-10-12T07:46:12.113Z,15.90
2022-10-12T07:48:44.538Z,15.30
2022-10-12T07:51:15.341Z,15.90
2022-10-12T07:53:43.161Z,16.37
2022-10-12T07:56:15.239Z,14.77
2022-10-12T07:58:48.308Z,14.87
2022-10-12T08:01:16.166Z,15.27
2022-10-12T08:03:43.966Z,15.17
2022-10-12T08:06:13.764Z,14.27
2022-10-12T08:08:41.609Z,15.57
2022-10-12T08:11:10.426Z,15.13
2022-10-12T08:13:38.643Z,15.20
2022-10-12T08:16:11.627Z,15.10
2022-10-12T08:18:39.555Z,15.90
2022-10-12T08:21:07.989Z,16.00
2022-10-12T08:23:37.061Z,15.30
2022-10-12T08:26:06.316Z,16.00
2022-10-12T08:28:34.727Z,15.77
2022-10-12T08:31:09.029Z,14.67
2022-10-12T08:33:36.920Z,16.83
2022-10-12T08:36:05.863Z,16.17
2022-10-12T08:38:34.070Z,16.20
2022-10-12T08:41:08.067Z,16.33
2022-10-12T08:43:49.010Z,14.27
2022-10-12T08:46:21.366Z,15.17
2022-10-12T08:48:52.879Z,15.67
2022-10-12T08:51:24.684Z,15.20
2022-10-12T08:53:58.431Z,14.57
2022-10-12T08:56:26.547Z,15.23
2022-10-12T08:58:55.431Z,13.77
2022-10-12T09:01:30.416Z,14.73
2022-10-12T09:04:11.993Z,15.60
2022-10-12T09:06:47.300Z,14.30
2022-10-12T09:09:43.275Z,14.20
2022-10-12T09:12:30.282Z,13.60
2022-10-12T09:15:01.511Z,13.83
2022-10-12T09:17:38.250Z,13.40
2022-10-12T09:20:17.214Z,13.53
2022-10-12T09:22:49.163Z,12.47
2022-10-12T09:25:18.550Z,12.13
2022-10-12T09:27:47.634Z,14.20
2022-10-12T09:30:17.041Z,12.90
2022-10-12T09:33:00.355Z,13.43
2022-10-12T09:35:28.487Z,13.03
2022-10-12T09:37:56.601Z,13.60
2022-10-12T09:40:28.422Z,12.70
2022-10-12T09:42:58.966Z,13.10
2022-10-12T09:45:27.402Z,12.23
2022-10-12T09:48:13.741Z,13.23
2022-10-12T09:50:45.474Z,12.13
2022-10-12T09:53:16.590Z,12.17
2022-10-12T09:55:54.700Z,10.50
2022-10-12T09:58:23.204Z,11.50
2022-10-12T10:01:13.469Z,11.40
2022-10-12T10:03:43.315Z,12.10
2022-10-12T10:06:11.111Z,12.07
2022-10-12T10:08:42.393Z,12.07
2022-10-12T10:11:16.903Z,13.80
2022-10-12T10:13:49.813Z,12.73
2022-10-12T10:16:18.216Z,12.90
2022-10-12T10:18:50.009Z,13.13
2022-10-12T10:21:26.565Z,13.03
2022-10-12T10:23:56.914Z,12.27
2022-10-12T10:26:28.451Z,13.67
2022-10-12T10:29:17.562Z,14.80
2022-10-12T10:31:48.079Z,12.70
2022-10-12T10:34:24.792Z,12.80
2022-10-12T10:36:55.906Z,14.10
2022-10-12T10:39:27.225Z,12.30
2022-10-12T10:41:56.155Z,13.03
2022-10-12T10:44:32.280Z,13.40
2022-10-12T10:47:03.269Z,14.37
2022-10-12T10:49:39.902Z,12.77
2022-10-12T10:52:19.925Z,14.43
2022-10-12T10:54:49.569Z,13.27
2022-10-12T10:57:20.239Z,13.80
2022-10-12T10:59:52.481Z,13.50
2022-10-12T11:02:26.387Z,13.33
2022-10-12T11:05:01.020Z,14.17
2022-10-12T11:07:34.536Z,13.33
2022-10-12T11:10:08.780Z,12.10
2022-10-12T11:12:49.561Z,12.60
2022-10-12T11:15:24.883Z,13.23
2022-10-12T11:17:59.203Z,12.67
2022-10-12T11:20:40.598Z,13.63
2022-10-12T11:23:19.350Z,13.30
2022-10-12T11:26:00.203Z,13.80
2022-10-12T11:28:31.837Z,12.77
2022-10-12T11:31:01.276Z,12.80
2022-10-12T11:33:38.259Z,12.03
2022-10-12T11:36:12.800Z,13.57
2022-10-12T11:38:45.315Z,12.23
2022-10-12T11:41:35.056Z,13.30
2022-10-12T11:44:07.838Z,12.70
2022-10-12T11:46:38.528Z,12.67
2022-10-12T11:49:14.874Z,11.97
2022-10-12T11:51:48.218Z,12.10
2022-10-12T11:54:25.132Z,12.27
2022-10-12T11:56:55.861Z,11.70
2022-10-12T11:59:32.104Z,12.70
2022-10-12T12:02:07.149Z,12.23
2022-10-12T12:04:44.461Z,11.97
2022-10-12T12:07:43.653Z,11.83
2022-10-12T12:10:53.047Z,11.53
2022-10-12T12:13:26.823Z,11.87
2022-10-12T12:16:32.637Z,12.50
2022-10-12T12:19:18.713Z,12.77
2022-10-12T12:22:12.318Z,12.90
2022-10-12T12:24:51.355Z,11.47
2022-10-12T12:27:28.841Z,11.60
2022-10-12T12:29:58.180Z,12.57
2022-10-12T12:32:27.087Z,12.13
2022-10-12T12:35:00.472Z,11.37
2022-10-12T12:37:35.196Z,12.53
2022-10-12T12:40:05.153Z,11.43
2022-10-12T12:42:34.201Z,11.10
2022-10-12T12:45:41.468Z,12.50
2022-10-12T12:48:11.342Z,12.40
2022-10-12T12:50:41.696Z,12.07
2022-10-12T12:53:17.811Z,12.63
2022-10-12T12:56:03.629Z,13.00
2022-10-12T12:59:01.316Z,12.47
2022-10-12T13:01:49.931Z,12.47
2022-10-12T13:04:35.383Z,12.03
2022-10-12T13:07:33.728Z,13.30
2022-10-12T13:10:15.071Z,11.93
2022-10-12T13:12:59.093Z,12.70
2022-10-12T13:15:38.650Z,13.47
2022-10-12T13:18:48.906Z,13.40
2022-10-12T13:21:19.816Z,13.93
2022-10-12T13:23:51.176Z,14.23
2022-10-12T13:26:23.102Z,13.87
2022-10-12T13:28:54.982Z,14.13
2022-10-12T13:31:27.624Z,14.20
2022-10-12T13:34:04.384Z,14.47
2022-10-12T13:36:35.160Z,13.80
2022-10-12T13:39:09.903Z,14.00
2022-10-12T13:41:37.775Z,13.23
2022-10-12T13:44:08.196Z,12.90
2022-10-12T13:46:40.633Z,13.40
2022-10-12T13:49:15.554Z,12.10
2022-10-12T13:51:45.953Z,12.83
2022-10-12T13:54:24.823Z,12.50
2022-10-12T13:56:57.377Z,11.07
2022-10-12T13:59:29.548Z,13.37
2022-10-12T14:02:00.690Z,11.40
2022-10-12T14:04:30.413Z,11.03
2022-10-12T14:07:02.239Z,11.67
2022-10-12T14:09:37.736Z,11.03
2022-10-12T14:12:06.155Z,11.23
2022-10-12T14:14:37.486Z,12.30
2022-10-12T14:17:05.591Z,12.77
2022-10-12T14:19:37.047Z,13.30
2022-10-12T14:22:05.061Z,13.50
2022-10-12T14:24:35.284Z,13.37
2022-10-12T14:27:05.213Z,13.63
2022-10-12T14:29:43.149Z,14.37
2022-10-12T14:32:46.349Z,14.50
2022-10-12T14:35:22.038Z,14.60
2022-10-12T14:37:51.756Z,14.50
2022-10-12T14:40:32.472Z,14.43
2022-10-12T14:43:03.552Z,15.37
2022-10-12T14:45:33.788Z,14.17
2022-10-12T14:48:02.772Z,14.80
2022-10-12T14:50:32.782Z,13.10
2022-10-12T14:53:03.741Z,15.00
2022-10-12T14:55:33.161Z,14.70
2022-10-12T14:58:01.307Z,15.50
2022-10-12T15:00:33.956Z,15.50
2022-10-12T15:03:02.560Z,14.50
2022-10-12T15:05:32.658Z,14.80
2022-10-12T15:08:04.324Z,14.70
2022-10-12T15:10:32.111Z,14.77
2022-10-12T15:12:59.922Z,13.77
2022-10-12T15:15:35.633Z,16.00
2022-10-12T15:18:03.682Z,15.43
2022-10-12T15:20:32.598Z,14.63
2022-10-12T15:23:01.030Z,14.63
2022-10-12T15:25:38.595Z,15.07
2022-10-12T15:28:08.236Z,14.67
2022-10-12T15:30:52.035Z,14.10
2022-10-12T15:33:20.281Z,15.60
2022-10-12T15:35:48.064Z,15.40
2022-10-12T15:38:15.841Z,14.70
2022-10-12T15:40:45.301Z,14.63
2022-10-12T15:43:13.317Z,15.90
2022-10-12T15:45:42.641Z,15.00
2022-10-12T15:48:11.501Z,16.57
2022-10-12T15:50:41.477Z,15.27
2022-10-12T15:53:11.143Z,15.30
2022-10-12T15:55:39.222Z,16.60
2022-10-12T15:58:07.096Z,17.27
2022-10-12T16:00:35.279Z,16.03
2022-10-12T16:03:04.813Z,18.10
2022-10-12T16:05:34.820Z,27.17
2022-10-12T16:08:03.403Z,21.57
2022-10-12T16:10:33.120Z,25.43
2022-10-12T16:13:01.226Z,31.80
2022-10-12T16:15:31.391Z,33.40
2022-10-12T16:18:00.135Z,35.07
2022-10-12T16:20:31.836Z,27.50
2022-10-12T16:23:01.019Z,25.63
2022-10-12T16:25:29.347Z,24.23
2022-10-12T16:27:58.548Z,23.90
2022-10-12T16:30:27.736Z,22.87
2022-10-12T16:32:55.537Z,23.83
2022-10-12T16:35:23.986Z,24.17
2022-10-12T16:37:53.178Z,23.13
2022-10-12T16:40:21.150Z,25.60
2022-10-12T16:42:53.061Z,23.53
2022-10-12T16:45:21.441Z,23.20
2022-10-12T16:47:50.385Z,22.67
2022-10-12T16:50:18.687Z,23.00
2022-10-12T16:52:46.593Z,24.10
2022-10-12T16:55:15.859Z,25.27
2022-10-12T16:57:43.796Z,32.90
2022-10-12T17:00:14.936Z,34.40
2022-10-12T17:02:42.962Z,48.13
2022-10-12T17:05:10.735Z,55.10
2022-10-12T17:07:38.591Z,49.57
2022-10-12T17:10:07.453Z,53.07
2022-10-12T17:12:36.677Z,47.07
2022-10-12T17:15:06.144Z,50.10
2022-10-12T17:17:33.954Z,46.23
2022-10-12T17:22:30.540Z,38.63
2022-10-12T17:24:58.420Z,37.87
2022-10-12T17:27:32.060Z,35.87
2022-10-12T17:30:01.480Z,36.53
2022-10-12T17:32:29.336Z,37.73
2022-10-12T17:34:57.118Z,35.30
2022-10-12T17:37:24.972Z,54.43
2022-10-12T17:39:52.821Z,59.43
2022-10-12T17:42:22.920Z,48.97
2022-10-12T17:44:50.762Z,46.63
2022-10-12T17:47:20.429Z,36.27
2022-10-12T17:49:48.377Z,34.20
2022-10-12T17:52:16.582Z,26.23
2022-10-12T17:54:44.540Z,28.40
2022-10-12T17:57:12.337Z,28.43
2022-10-12T17:59:40.489Z,28.17
2022-10-12T18:02:09.802Z,25.53
2022-10-12T18:04:39.132Z,23.77
2022-10-12T18:07:07.199Z,23.30
2022-10-12T18:09:35.032Z,24.77
2022-10-12T18:12:02.878Z,26.17
2022-10-12T18:14:31.009Z,21.03
2022-10-12T18:16:58.916Z,19.57
2022-10-12T18:19:26.731Z,20.80
2022-10-12T18:21:56.136Z,19.80
2022-10-12T18:24:24.266Z,18.20
2022-10-12T18:26:52.392Z,18.63
2022-10-12T18:29:20.714Z,18.40
2022-10-12T18:31:48.693Z,18.50
2022-10-12T18:34:16.771Z,19.60
2022-10-12T18:36:44.650Z,18.60
2022-10-12T18:39:14.272Z,18.70
2022-10-12T18:41:42.365Z,18.50
2022-10-12T18:44:10.893Z,18.93
2022-10-12T18:46:39.085Z,17.63
2022-10-12T18:49:09.259Z,18.10
2022-10-12T18:51:39.193Z,17.90
2022-10-12T18:54:07.881Z,18.37
2022-10-12T18:56:37.816Z,19.20
2022-10-12T18:59:06.845Z,20.10
2022-10-12T19:01:35.383Z,18.27
2022-10-12T19:04:05.534Z,18.13
2022-10-12T19:06:36.022Z,17.70
2022-10-12T19:09:05.582Z,19.50
2022-10-12T19:11:34.440Z,18.60
2022-10-12T19:14:05.908Z,17.83
2022-10-12T19:16:35.308Z,17.53
2022-10-12T19:19:06.549Z,18.10
2022-10-12T19:21:35.279Z,18.83
2022-10-12T19:24:03.930Z,18.90
2022-10-12T19:26:31.861Z,18.90
2022-10-12T19:28:59.871Z,18.00
2022-10-12T19:31:30.980Z,17.47
2022-10-12T19:34:00.632Z,15.70
2022-10-12T19:36:29.533Z,13.87
2022-10-12T19:38:57.999Z,16.27
2022-10-12T19:41:26.577Z,15.87
2022-10-12T19:43:54.624Z,16.43
2022-10-12T19:46:23.155Z,16.50
2022-10-12T19:48:53.510Z,14.90
2022-10-12T19:51:23.103Z,16.80
2022-10-12T19:53:54.284Z,15.67
2022-10-12T19:56:22.721Z,16.20
2022-10-12T19:58:52.560Z,14.93
2022-10-12T20:01:22.345Z,15.70
2022-10-12T20:03:52.790Z,15.67
2022-10-12T20:06:23.257Z,14.67
2022-10-12T20:08:52.592Z,15.90
2022-10-12T20:11:24.734Z,16.43
2022-10-12T20:13:53.604Z,14.20
2022-10-12T20:16:21.894Z,14.63
2022-10-12T20:18:50.552Z,15.10
2022-10-12T20:21:22.515Z,15.37
2022-10-12T20:23:51.669Z,15.70
2022-10-12T20:26:21.861Z,15.47
2022-10-12T20:28:50.552Z,15.50
2022-10-12T20:31:22.851Z,16.37
2022-10-12T20:33:52.812Z,16.37
2022-10-12T20:36:24.695Z,15.57
2022-10-12T20:38:52.898Z,16.17
2022-10-12T20:41:21.621Z,16.47
2022-10-12T20:43:49.473Z,17.00
2022-10-12T20:46:19.220Z,15.70
2022-10-12T20:48:47.410Z,16.27
2022-10-12T20:51:20.568Z,17.83
2022-10-12T20:53:50.775Z,17.70
2022-10-12T20:56:18.628Z,16.80
2022-10-12T20:58:46.436Z,15.23
2022-10-12T21:01:16.466Z,16.27
2022-10-12T21:03:44.397Z,15.23
2022-10-12T21:06:15.646Z,15.70
2022-10-12T21:08:44.021Z,14.80
2022-10-12T21:11:13.145Z,14.63
2022-10-12T21:13:41.658Z,15.47
2022-10-12T21:16:09.977Z,15.70
2022-10-12T21:18:38.515Z,14.63
2022-10-12T21:21:11.379Z,13.20
2022-10-12T21:23:39.553Z,14.70
2022-10-12T21:26:14.156Z,13.87
2022-10-12T21:28:42.467Z,14.00
2022-10-12T21:31:11.263Z,13.40
2022-10-12T21:33:40.269Z,13.07
2022-10-12T21:36:10.157Z,13.63
2022-10-12T21:38:38.413Z,14.20
2022-10-12T21:41:07.450Z,13.30
2022-10-12T21:43:37.244Z,12.87
2022-10-12T21:46:06.543Z,13.40
2022-10-12T21:48:34.812Z,13.13
2022-10-12T21:51:03.377Z,11.37
2022-10-12T21:53:31.991Z,12.43
2022-10-12T21:55:59.852Z,12.93
2022-10-12T21:58:27.612Z,13.20
2022-10-12T22:01:07.188Z,13.60
2022-10-12T22:03:35.229Z,12.73
2022-10-12T22:06:03.436Z,12.10
2022-10-12T22:08:31.340Z,12.73
2022-10-12T22:11:05.822Z,13.60
2022-10-12T22:13:33.905Z,11.60
2022-10-12T22:16:03.210Z,13.50
2022-10-12T22:18:32.477Z,13.03
2022-10-12T22:21:04.259Z,12.93
2022-10-12T22:23:32.497Z,12.43
2022-10-12T22:26:06.587Z,13.67
2022-10-12T22:29:29.488Z,12.60
2022-10-12T22:32:22.863Z,10.47
2022-10-12T22:34:52.044Z,13.80
2022-10-12T22:37:19.882Z,12.90
2022-10-12T22:39:47.659Z,13.13
2022-10-12T22:42:15.510Z,12.07
2022-10-12T22:44:43.416Z,12.47
2022-10-12T22:47:11.218Z,13.30
2022-10-12T22:49:39.025Z,11.97
2022-10-12T22:52:08.160Z,12.93
2022-10-12T22:54:37.323Z,12.57
2022-10-12T22:57:05.277Z,13.03
2022-10-12T22:59:35.883Z,11.90
2022-10-12T23:02:03.687Z,13.07
2022-10-12T23:04:31.613Z,12.60
2022-10-12T23:06:59.394Z,13.27
2022-10-12T23:09:29.221Z,13.20
2022-10-12T23:11:57.912Z,13.63
2022-10-12T23:14:25.848Z,13.50
2022-10-12T23:16:53.652Z,12.30
2022-10-12T23:19:21.467Z,13.60
2022-10-12T23:21:49.298Z,12.63
2022-10-12T23:24:17.128Z,13.27
2022-10-12T23:26:46.289Z,12.80
2022-10-12T23:29:14.069Z,12.17
2022-10-12T23:31:41.881Z,12.83
2022-10-12T23:34:12.054Z,12.80
2022-10-12T23:36:39.880Z,12.33
2022-10-12T23:39:07.683Z,12.57
2022-10-12T23:41:35.518Z,13.40
2022-10-12T23:44:04.967Z,12.57
2022-10-12T23:46:33.051Z,12.33
2022-10-12T23:49:00.816Z,12.67
2022-10-12T23:51:28.805Z,11.97
2022-10-12T23:53:56.631Z,11.87
2022-10-12T23:56:24.452Z,12.37
2022-10-12T23:58:52.304Z,12.77
